Time;durP1;ratioP1;P1;durP2;ratioP2;P2;SDS_P1;SDS_P2;PMS_P1;PMS_P2;Temp;Humidity;BMP_temperature;BMP_pressure;BME280_temperature;BME280_humidity;BME280_pressure;Samples;Min_cycle;Max_cycle;Signal;HPM_P1;HPM_P2
2023/10/24 00:01:09;;;;;;;16.02;6.10;;;;;;;;;;5026321;28;20635;-83
2023/10/24 00:03:53;;;;;;;14.60;6.38;;;;;;;;;;5028435;28;20033;-85
2023/10/24 00:06:38;;;;;;;12.40;6.07;;;;;;;;;;5028632;28;20424;-82
2023/10/24 00:09:24;;;;;;;13.55;6.20;;;;;;;;;;5033260;28;20033;-83
2023/10/24 00:12:09;;;;;;;19.00;7.75;;;;;;;;;;5026240;28;20369;-83
2023/10/24 00:14:55;;;;;;;16.95;6.63;;;;;;;;;;5020114;28;20037;-83
2023/10/24 00:17:40;;;;;;;14.77;6.63;;;;;;;;;;5035573;28;20037;-82
2023/10/24 00:20:25;;;;;;;13.18;6.47;;;;;;;;;;5029864;28;20052;-82
2023/10/24 00:23:11;;;;;;;13.05;6.10;;;;;;;;;;5034944;28;20049;-83
2023/10/24 00:25:56;;;;;;;13.07;5.70;;;;;;;;;;5033885;28;20445;-83
2023/10/24 00:28:42;;;;;;;10.15;4.53;;;;;;;;;;5027817;28;20457;-83
2023/10/24 00:31:28;;;;;;;7.63;4.28;;;;;;;;;;5027538;28;20369;-85
2023/10/24 00:34:13;;;;;;;8.75;4.00;;;;;;;;;;5027978;28;20454;-82
2023/10/24 00:36:59;;;;;;;8.57;4.05;;;;;;;;;;5033369;28;20032;-82
2023/10/24 00:39:44;;;;;;;8.38;4.00;;;;;;;;;;5033413;28;20037;-84
2023/10/24 00:42:29;;;;;;;10.07;4.00;;;;;;;;;;5032474;28;20037;-82
2023/10/24 00:45:14;;;;;;;9.60;3.55;;;;;;;;;;5032905;28;20037;-86
2023/10/24 00:48:05;;;;;;;10.07;4.07;;;;;;;;;;5033020;28;20040;-83
2023/10/24 00:50:50;;;;;;;9.02;3.85;;;;;;;;;;5019152;28;20045;-83
2023/10/24 00:53:36;;;;;;;6.93;3.45;;;;;;;;;;5026405;28;20369;-84
2023/10/24 00:56:21;;;;;;;17.30;3.78;;;;;;;;;;5033137;28;20361;-84
2023/10/24 00:59:07;;;;;;;10.93;4.45;;;;;;;;;;5034964;28;20029;-84
2023/10/24 01:01:52;;;;;;;9.65;4.00;;;;;;;;;;5037474;28;20060;-84
2023/10/24 01:04:39;;;;;;;8.73;3.50;;;;;;;;;;5021655;28;20322;-83
2023/10/24 01:07:24;;;;;;;10.68;3.92;;;;;;;;;;5035404;28;20049;-84
2023/10/24 01:10:11;;;;;;;15.65;4.00;;;;;;;;;;5033668;28;20037;-85
2023/10/24 01:12:56;;;;;;;8.52;3.50;;;;;;;;;;5032175;28;20033;-84
2023/10/24 01:15:42;;;;;;;10.02;3.78;;;;;;;;;;5033469;28;20477;-84
2023/10/24 01:18:26;;;;;;;12.07;4.03;;;;;;;;;;5033680;28;20053;-84
2023/10/24 01:21:12;;;;;;;8.13;3.80;;;;;;;;;;5032012;28;20049;-83
2023/10/24 01:23:58;;;;;;;9.05;4.25;;;;;;;;;;5026950;28;20049;-84
2023/10/24 01:26:44;;;;;;;10.93;4.40;;;;;;;;;;5032625;28;20029;-83
2023/10/24 01:29:30;;;;;;;12.15;4.72;;;;;;;;;;5025099;28;20098;-85
2023/10/24 01:32:15;;;;;;;11.00;4.75;;;;;;;;;;5031926;28;20369;-82
2023/10/24 01:35:00;;;;;;;9.90;5.03;;;;;;;;;;5017633;28;20361;-84
2023/10/24 01:37:44;;;;;;;;;;;;;;;;;;5033603;28;20040;-84
2023/10/24 01:40:29;;;;;;;13.70;5.68;;;;;;;;;;5035766;28;19971;-84
2023/10/24 01:43:15;;;;;;;13.35;5.40;;;;;;;;;;5032637;28;20045;-82
2023/10/24 01:46:00;;;;;;;13.30;4.95;;;;;;;;;;5018685;28;20037;-85
2023/10/24 01:48:45;;;;;;;16.25;5.22;;;;;;;;;;5031889;28;20028;-83
2023/10/24 01:51:31;;;;;;;12.32;5.38;;;;;;;;;;5031194;28;20393;-83
2023/10/24 01:54:16;;;;;;;11.10;5.05;;;;;;;;;;5025082;28;20040;-84
2023/10/24 01:57:01;;;;;;;10.60;5.53;;;;;;;;;;5029101;28;20048;-85
2023/10/24 01:59:46;;;;;;;14.27;5.20;;;;;;;;;;5031910;28;20468;-84
2023/10/24 02:02:31;;;;;;;14.10;5.80;;;;;;;;;;5016747;28;20465;-83
2023/10/24 02:05:16;;;;;;;10.10;4.78;;;;;;;;;;5017850;28;20044;-86
2023/10/24 02:08:02;;;;;;;9.68;5.00;;;;;;;;;;5024132;28;20045;-84
2023/10/24 02:10:46;;;;;;;11.38;5.05;;;;;;;;;;5031648;28;20428;-84
2023/10/24 02:13:31;;;;;;;14.10;4.88;;;;;;;;;;5029907;28;20362;-85
2023/10/24 02:16:16;;;;;;;11.70;4.68;;;;;;;;;;5035489;28;20041;-85
2023/10/24 02:19:01;;;;;;;11.98;4.88;;;;;;;;;;5035495;28;20037;-85
2023/10/24 02:21:46;;;;;;;9.73;4.20;;;;;;;;;;5035721;28;20037;-84
2023/10/24 02:24:32;;;;;;;11.48;6.22;;;;;;;;;;5030421;28;20033;-86
2023/10/24 02:27:17;;;;;;;16.73;5.70;;;;;;;;;;5037296;28;20373;-84
2023/10/24 02:30:04;;;;;;;19.58;6.65;;;;;;;;;;5035660;28;20052;-83
2023/10/24 02:32:51;;;;;;;14.13;5.80;;;;;;;;;;5038533;28;20025;-85
2023/10/24 02:35:36;;;;;;;13.60;5.82;;;;;;;;;;5039212;28;20032;-85
2023/10/24 02:38:20;;;;;;;12.93;5.18;;;;;;;;;;5034376;28;20033;-83
2023/10/24 02:41:06;;;;;;;18.00;5.60;;;;;;;;;;5035368;28;20452;-83
2023/10/24 02:43:51;;;;;;;12.43;5.15;;;;;;;;;;5035217;28;20041;-85
2023/10/24 02:46:37;;;;;;;9.82;5.13;;;;;;;;;;5029573;28;20674;-83
2023/10/24 02:49:22;;;;;;;13.10;5.68;;;;;;;;;;5029761;28;20032;-85
2023/10/24 02:52:07;;;;;;;17.23;6.38;;;;;;;;;;5034920;28;20056;-84
2023/10/24 02:54:53;;;;;;;14.50;5.72;;;;;;;;;;5031822;28;20039;-84
2023/10/24 02:57:37;;;;;;;13.27;5.85;;;;;;;;;;5023730;28;20404;-84
2023/10/24 03:00:23;;;;;;;14.10;6.68;;;;;;;;;;5025747;28;20459;-85
2023/10/24 03:03:08;;;;;;;19.63;6.38;;;;;;;;;;5031833;28;20056;-84
2023/10/24 03:05:54;;;;;;;13.13;6.40;;;;;;;;;;5031703;28;20431;-83
2023/10/24 03:08:39;;;;;;;17.88;5.57;;;;;;;;;;5035759;28;21907;-84
2023/10/24 03:11:24;;;;;;;10.35;5.88;;;;;;;;;;5021247;28;20503;-85
2023/10/24 03:14:10;;;;;;;9.25;5.22;;;;;;;;;;5035066;28;20040;-84
2023/10/24 03:16:55;;;;;;;10.60;5.80;;;;;;;;;;5016958;28;20028;-84
2023/10/24 03:19:41;;;;;;;14.13;6.10;;;;;;;;;;5031246;28;20039;-83
2023/10/24 03:22:27;;;;;;;16.02;5.68;;;;;;;;;;5036650;28;20406;-84
2023/10/24 03:25:12;;;;;;;10.50;5.75;;;;;;;;;;5029218;28;20108;-85
2023/10/24 03:27:58;;;;;;;15.52;5.70;;;;;;;;;;5020890;28;20045;-85
2023/10/24 03:30:43;;;;;;;11.57;6.47;;;;;;;;;;5039484;28;20056;-85
2023/10/24 03:33:30;;;;;;;16.42;7.53;;;;;;;;;;5043813;28;20483;-87
2023/10/24 03:36:15;;;;;;;14.80;8.02;;;;;;;;;;5043181;28;20051;-85
2023/10/24 03:39:00;;;;;;;17.52;8.57;;;;;;;;;;5021042;28;20052;-85
2023/10/24 03:41:45;;;;;;;17.60;9.27;;;;;;;;;;5035038;28;20067;-85
2023/10/24 03:44:30;;;;;;;25.25;10.18;;;;;;;;;;5033869;28;20467;-86
2023/10/24 03:47:16;;;;;;;20.17;10.05;;;;;;;;;;5034115;28;20103;-84
2023/10/24 03:50:03;;;;;;;14.68;7.85;;;;;;;;;;5034681;28;20044;-85
2023/10/24 03:52:48;;;;;;;16.73;7.85;;;;;;;;;;5033881;28;20047;-86
2023/10/24 03:55:34;;;;;;;19.52;10.07;;;;;;;;;;5035809;28;21553;-85
2023/10/24 03:58:19;;;;;;;17.02;9.23;;;;;;;;;;5026328;28;20487;-85
2023/10/24 04:01:07;;;;;;;18.40;9.90;;;;;;;;;;5019979;28;20507;-86
2023/10/24 04:03:55;;;;;;;24.33;12.85;;;;;;;;;;5033504;28;20040;-85
2023/10/24 04:06:40;;;;;;;16.60;8.15;;;;;;;;;;5033667;28;20064;-86
2023/10/24 04:09:26;;;;;;;11.57;6.65;;;;;;;;;;5033480;28;20035;-84
2023/10/24 04:12:13;;;;;;;14.80;7.13;;;;;;;;;;5020555;28;20037;-85
2023/10/24 04:14:59;;;;;;;13.35;7.03;;;;;;;;;;5013004;28;20048;-85
2023/10/24 04:17:44;;;;;;;15.18;6.70;;;;;;;;;;5034600;28;20384;-84
2023/10/24 04:20:33;;;;;;;17.38;7.50;;;;;;;;;;5036146;28;20041;-85
2023/10/24 04:23:53;;;;;;;15.55;7.15;;;;;;;;;;5019906;28;20056;-84
2023/10/24 04:27:04;;;;;;;21.33;7.82;;;;;;;;;;5035292;28;20056;-84
2023/10/24 04:29:50;;;;;;;13.90;6.90;;;;;;;;;;5036978;28;20052;-83
2023/10/24 04:32:35;;;;;;;14.45;7.32;;;;;;;;;;5027384;28;20039;-85
2023/10/24 04:35:21;;;;;;;11.45;6.75;;;;;;;;;;5034286;28;20037;-86
2023/10/24 04:41:27;;;;;;;14.52;7.88;;;;;;;;;;5033757;28;20048;-86
2023/10/24 04:44:16;;;;;;;24.52;9.48;;;;;;;;;;5034191;28;20396;-87
2023/10/24 04:47:06;;;;;;;15.70;7.25;;;;;;;;;;5019971;28;20390;-85
2023/10/24 04:49:52;;;;;;;20.98;7.40;;;;;;;;;;5034722;28;20045;-84
2023/10/24 04:52:37;;;;;;;19.80;7.03;;;;;;;;;;5024034;28;20048;-83
2023/10/24 04:55:23;;;;;;;12.85;7.43;;;;;;;;;;5039738;28;20048;-84
2023/10/24 04:58:09;;;;;;;14.40;7.85;;;;;;;;;;5015732;28;20150;-85
2023/10/24 05:00:55;;;;;;;28.38;8.30;;;;;;;;;;5034781;28;20484;-88
2023/10/24 05:03:41;;;;;;;16.33;8.27;;;;;;;;;;5018951;28;20468;-90
2023/10/24 05:06:51;;;;;;;;;;;;;;;;;;;;;
2023/10/24 05:10:38;;;;;;;;;;;;;;;;;;;;;
2023/10/24 05:13:37;;;;;;;38.65;22.67;;;;;;;;;;5028298;28;20105;-85
2023/10/24 05:21:02;;;;;;;;;;;;;;;;;;;;;
2023/10/24 05:24:25;;;;;;;99.72;48.17;;;;;;;;;;4969801;28;20825;-86
2023/10/24 05:27:41;;;;;;;114.40;63.88;;;;;;;;;;4967005;28;20044;-87
2023/10/24 05:34:42;;;;;;;82.15;52.03;;;;;;;;;;4981674;28;20068;-86
2023/10/24 05:49:12;;;;;;;79.30;48.60;;;;;;;;;;4933642;28;20395;-87
2023/10/24 05:52:03;;;;;;;88.18;51.70;;;;;;;;;;4912388;28;20081;-86
2023/10/24 05:59:04;;;;;;;87.82;55.97;;;;;;;;;;4890067;28;21728;-87
2023/10/24 06:01:49;;;;;;;84.00;53.20;;;;;;;;;;4989706;28;20149;-83
2023/10/24 06:04:35;;;;;;;79.32;55.42;;;;;;;;;;4995374;28;20108;-84
2023/10/24 06:07:20;;;;;;;89.78;59.33;;;;;;;;;;4988224;28;20084;-85
2023/10/24 06:10:05;;;;;;;85.05;53.53;;;;;;;;;;5004822;28;20060;-82
2023/10/24 06:12:50;;;;;;;66.95;45.17;;;;;;;;;;5008325;28;20064;-83
2023/10/24 06:15:36;;;;;;;82.70;51.75;;;;;;;;;;5007115;28;20044;-82
2023/10/24 06:18:21;;;;;;;114.47;63.55;;;;;;;;;;5002336;28;20484;-84
2023/10/24 06:21:05;;;;;;;;;;;;;;;;;;4994953;28;20401;-84
2023/10/24 06:23:50;;;;;;;35.47;20.77;;;;;;;;;;5026207;28;19935;-82
2023/10/24 06:26:35;;;;;;;31.63;16.17;;;;;;;;;;5028862;28;20422;-84
2023/10/24 06:29:20;;;;;;;23.75;12.55;;;;;;;;;;5037147;28;20047;-81
2023/10/24 06:32:05;;;;;;;19.23;10.60;;;;;;;;;;5034914;28;20494;-81
2023/10/24 06:34:51;;;;;;;22.65;11.68;;;;;;;;;;5035496;28;20383;-80
2023/10/24 06:37:37;;;;;;;25.75;11.30;;;;;;;;;;5052082;28;20043;-84
2023/10/24 06:40:22;;;;;;;23.17;11.80;;;;;;;;;;5052148;28;20475;-81
2023/10/24 06:43:08;;;;;;;22.50;11.18;;;;;;;;;;5051355;28;20043;-83
2023/10/24 06:45:53;;;;;;;14.20;9.18;;;;;;;;;;5036236;28;20047;-84
2023/10/24 06:48:39;;;;;;;17.08;9.07;;;;;;;;;;5054276;28;20044;-83
2023/10/24 06:51:25;;;;;;;14.32;8.48;;;;;;;;;;5051068;28;20467;-84
2023/10/24 06:54:11;;;;;;;14.48;9.18;;;;;;;;;;5047508;28;20046;-86
2023/10/24 06:56:56;;;;;;;15.00;8.35;;;;;;;;;;5036811;28;20055;-85
2023/10/24 06:59:41;;;;;;;14.73;8.68;;;;;;;;;;5032711;28;20067;-83
2023/10/24 07:02:26;;;;;;;22.80;12.05;;;;;;;;;;5036707;28;20513;-85
2023/10/24 07:05:11;;;;;;;31.17;14.18;;;;;;;;;;5054474;28;20510;-85
2023/10/24 07:07:58;;;;;;;29.42;14.55;;;;;;;;;;5052035;28;20502;-86
2023/10/24 07:10:44;;;;;;;19.42;9.82;;;;;;;;;;5036303;28;20474;-84
2023/10/24 07:13:29;;;;;;;16.77;9.02;;;;;;;;;;5051831;28;20491;-83
2023/10/24 07:16:13;;;;;;;;;;;;;;;;;;5035559;28;20051;-84
2023/10/24 07:18:59;;;;;;;17.17;8.82;;;;;;;;;;5029548;28;19935;-83
2023/10/24 07:21:45;;;;;;;12.93;7.75;;;;;;;;;;5045087;28;20231;-82
2023/10/24 07:24:29;;;;;;;13.98;8.00;;;;;;;;;;5057017;28;20494;-84
2023/10/24 07:27:14;;;;;;;17.75;8.70;;;;;;;;;;5021637;28;20059;-82
2023/10/24 07:30:00;;;;;;;19.73;9.32;;;;;;;;;;5044870;28;20387;-84
2023/10/24 07:32:45;;;;;;;17.08;8.68;;;;;;;;;;5050045;28;20872;-83
2023/10/24 07:35:29;;;;;;;15.43;8.35;;;;;;;;;;5044346;28;20055;-83
2023/10/24 07:38:14;;;;;;;15.13;9.02;;;;;;;;;;5020620;28;20399;-86
2023/10/24 07:41:00;;;;;;;18.50;7.63;;;;;;;;;;5021248;28;20039;-83
2023/10/24 07:43:45;;;;;;;22.08;11.05;;;;;;;;;;5034874;28;20494;-84
2023/10/24 07:46:31;;;;;;;14.43;8.00;;;;;;;;;;5034860;28;20063;-83
2023/10/24 07:49:16;;;;;;;15.45;7.95;;;;;;;;;;5051491;28;20491;-85
2023/10/24 07:52:01;;;;;;;11.35;6.72;;;;;;;;;;5043938;28;20502;-83
2023/10/24 07:54:46;;;;;;;15.35;6.55;;;;;;;;;;5051563;28;20063;-86
2023/10/24 07:57:31;;;;;;;13.18;6.47;;;;;;;;;;5051414;28;20379;-89
2023/10/24 08:00:16;;;;;;;16.08;6.38;;;;;;;;;;5027632;28;20519;-84
2023/10/24 08:03:01;;;;;;;13.57;6.45;;;;;;;;;;5015828;28;20391;-85
2023/10/24 08:05:46;;;;;;;16.63;7.13;;;;;;;;;;5035394;28;20052;-86
2023/10/24 08:08:32;;;;;;;13.55;5.65;;;;;;;;;;5035398;28;20058;-84
2023/10/24 08:11:18;;;;;;;11.38;4.60;;;;;;;;;;5044684;28;20522;-84
2023/10/24 08:14:03;;;;;;;12.32;4.78;;;;;;;;;;5035182;28;20099;-84
2023/10/24 08:16:48;;;;;;;11.88;5.70;;;;;;;;;;5035398;28;20043;-83
2023/10/24 08:19:33;;;;;;;10.90;5.55;;;;;;;;;;5044215;28;20047;-82
2023/10/24 08:22:18;;;;;;;12.13;5.80;;;;;;;;;;5031172;28;20052;-81
2023/10/24 08:25:03;;;;;;;15.00;6.20;;;;;;;;;;5040829;28;20085;-80
2023/10/24 08:27:49;;;;;;;11.20;4.85;;;;;;;;;;5055980;28;20254;-81
2023/10/24 08:30:34;;;;;;;14.07;5.53;;;;;;;;;;5054915;28;20399;-82
2023/10/24 08:33:20;;;;;;;9.50;4.90;;;;;;;;;;5030857;28;20403;-80
2023/10/24 08:36:06;;;;;;;13.30;5.32;;;;;;;;;;5031485;28;20032;-80
2023/10/24 08:38:51;;;;;;;14.88;5.70;;;;;;;;;;5059646;28;20036;-83
2023/10/24 08:41:36;;;;;;;16.10;7.68;;;;;;;;;;5031921;28;20491;-83
2023/10/24 08:44:21;;;;;;;19.02;6.97;;;;;;;;;;5048084;28;20511;-82
2023/10/24 08:47:06;;;;;;;19.80;8.45;;;;;;;;;;5042752;28;20047;-85
2023/10/24 08:49:54;;;;;;;12.85;6.65;;;;;;;;;;5051191;28;20063;-82
2023/10/24 08:52:39;;;;;;;17.52;8.00;;;;;;;;;;5053827;28;20045;-83
2023/10/24 08:55:26;;;;;;;23.25;7.80;;;;;;;;;;5039340;28;20033;-83
2023/10/24 08:58:14;;;;;;;15.82;6.65;;;;;;;;;;5047483;28;20043;-83
2023/10/24 09:00:59;;;;;;;13.73;6.22;;;;;;;;;;5023893;28;20056;-83
2023/10/24 09:03:44;;;;;;;20.45;7.07;;;;;;;;;;5037787;28;20357;-84
2023/10/24 09:06:31;;;;;;;17.02;7.15;;;;;;;;;;5047114;28;20506;-83
2023/10/24 09:09:17;;;;;;;13.77;6.75;;;;;;;;;;5046459;28;20048;-84
2023/10/24 09:12:04;;;;;;;19.52;9.50;;;;;;;;;;5046885;28;20059;-85
2023/10/24 09:14:49;;;;;;;17.98;9.07;;;;;;;;;;5030742;28;20488;-84
2023/10/24 09:17:35;;;;;;;16.20;8.18;;;;;;;;;;5036436;28;20037;-85
2023/10/24 09:20:20;;;;;;;24.02;10.20;;;;;;;;;;5037236;28;20044;-82
2023/10/24 09:23:07;;;;;;;23.08;8.98;;;;;;;;;;5045317;28;20091;-85
2023/10/24 09:25:53;;;;;;;17.38;7.80;;;;;;;;;;5038177;28;20392;-82
2023/10/24 09:28:39;;;;;;;18.40;6.50;;;;;;;;;;5053984;28;20052;-84
2023/10/24 09:31:25;;;;;;;10.80;5.88;;;;;;;;;;5065565;28;20553;-84
2023/10/24 09:34:10;;;;;;;13.90;5.63;;;;;;;;;;5023622;28;20043;-83
2023/10/24 09:37:04;;;;;;;13.30;6.03;;;;;;;;;;5029801;28;20033;-84
2023/10/24 09:39:53;;;;;;;12.07;5.15;;;;;;;;;;5023923;28;20039;-83
2023/10/24 09:42:39;;;;;;;26.45;10.30;;;;;;;;;;5040457;28;20171;-85
2023/10/24 09:45:24;;;;;;;17.52;5.28;;;;;;;;;;5038386;28;20027;-83
2023/10/24 09:48:10;;;;;;;14.18;6.07;;;;;;;;;;5031568;28;20506;-84
2023/10/24 09:50:55;;;;;;;15.02;6.45;;;;;;;;;;5047068;28;20606;-85
2023/10/24 09:53:41;;;;;;;16.92;6.13;;;;;;;;;;5036142;28;20097;-84
2023/10/24 09:56:29;;;;;;;17.00;6.50;;;;;;;;;;5051213;28;20041;-85
2023/10/24 09:59:14;;;;;;;17.15;6.45;;;;;;;;;;5030669;28;20051;-84
2023/10/24 10:02:00;;;;;;;22.70;6.43;;;;;;;;;;5050480;28;20090;-85
2023/10/24 10:04:47;;;;;;;23.58;5.60;;;;;;;;;;5045539;28;20482;-84
2023/10/24 10:07:32;;;;;;;19.98;6.25;;;;;;;;;;5045445;28;20035;-84
2023/10/24 10:10:19;;;;;;;15.10;5.32;;;;;;;;;;5045775;28;20035;-85
2023/10/24 10:13:06;;;;;;;18.25;5.70;;;;;;;;;;5045646;28;20040;-85
2023/10/24 10:15:56;;;;;;;10.75;5.22;;;;;;;;;;5030710;28;20047;-83
2023/10/24 10:19:00;;;;;;;11.05;4.97;;;;;;;;;;5028223;28;20397;-84
2023/10/24 10:21:51;;;;;;;13.65;4.72;;;;;;;;;;5050168;28;20376;-82
2023/10/24 10:24:41;;;;;;;11.07;5.40;;;;;;;;;;5055479;28;20760;-81
2023/10/24 10:27:26;;;;;;;18.20;5.60;;;;;;;;;;5057303;28;20486;-84
2023/10/24 10:30:30;;;;;;;13.93;5.65;;;;;;;;;;5040843;28;20044;-83
2023/10/24 10:33:16;;;;;;;17.25;5.60;;;;;;;;;;5050265;28;20040;-83
2023/10/24 10:36:05;;;;;;;20.95;6.00;;;;;;;;;;5052044;28;20482;-80
2023/10/24 10:38:50;;;;;;;13.13;5.50;;;;;;;;;;5051215;28;20060;-83
2023/10/24 10:41:38;;;;;;;13.57;5.20;;;;;;;;;;5052981;28;20494;-83
2023/10/24 10:44:36;;;;;;;15.57;5.60;;;;;;;;;;5037781;28;20059;-80
2023/10/24 10:47:21;;;;;;;14.90;6.03;;;;;;;;;;5052626;28;20047;-83
2023/10/24 10:50:07;;;;;;;16.20;5.07;;;;;;;;;;5045526;28;20041;-82
2023/10/24 10:53:01;;;;;;;12.68;4.18;;;;;;;;;;5052435;28;20399;-82
2023/10/24 10:55:48;;;;;;;13.63;5.65;;;;;;;;;;5050421;28;20423;-84
2023/10/24 10:58:33;;;;;;;18.83;4.20;;;;;;;;;;5050121;28;20063;-81
2023/10/24 11:01:24;;;;;;;10.77;3.50;;;;;;;;;;5029088;28;20028;-82
2023/10/24 11:04:14;;;;;;;9.52;3.60;;;;;;;;;;5053255;28;20049;-81
2023/10/24 11:07:00;;;;;;;11.68;3.60;;;;;;;;;;5045396;28;20464;-82
2023/10/24 11:09:45;;;;;;;12.52;3.85;;;;;;;;;;5044770;28;20399;-82
2023/10/24 11:12:30;;;;;;;9.68;3.15;;;;;;;;;;5043980;28;20060;-82
2023/10/24 11:15:19;;;;;;;10.80;3.30;;;;;;;;;;5051436;28;20036;-80
2023/10/24 11:18:06;;;;;;;12.70;3.60;;;;;;;;;;5044507;28;20039;-81
2023/10/24 11:20:51;;;;;;;10.02;3.22;;;;;;;;;;5050303;28;20514;-80
2023/10/24 11:23:37;;;;;;;12.32;3.40;;;;;;;;;;5050474;28;20040;-83
2023/10/24 11:26:23;;;;;;;10.75;3.75;;;;;;;;;;5044188;28;20387;-83
2023/10/24 11:29:09;;;;;;;14.57;3.78;;;;;;;;;;5050368;28;20055;-81
2023/10/24 11:31:57;;;;;;;8.88;3.47;;;;;;;;;;5050810;28;20052;-81
2023/10/24 11:34:43;;;;;;;9.25;3.50;;;;;;;;;;5043524;28;20029;-81
2023/10/24 11:37:29;;;;;;;13.02;3.60;;;;;;;;;;5044293;28;20369;-82
2023/10/24 11:40:14;;;;;;;13.70;3.35;;;;;;;;;;5043570;28;20492;-81
2023/10/24 11:43:04;;;;;;;25.88;11.68;;;;;;;;;;5050211;28;20487;-81
2023/10/24 11:45:49;;;;;;;9.35;3.33;;;;;;;;;;5034806;28;20039;-81
2023/10/24 11:48:34;;;;;;;6.95;2.75;;;;;;;;;;5049893;28;20376;-81
2023/10/24 11:51:19;;;;;;;10.05;3.03;;;;;;;;;;5051205;28;20040;-82
2023/10/24 11:54:05;;;;;;;14.60;4.25;;;;;;;;;;5034500;28;20044;-81
2023/10/24 11:56:51;;;;;;;7.32;3.05;;;;;;;;;;5052347;28;20048;-81
2023/10/24 11:59:38;;;;;;;10.30;3.25;;;;;;;;;;5049520;28;20384;-82
2023/10/24 12:02:22;;;;;;;9.13;2.90;;;;;;;;;;5054643;28;20048;-81
2023/10/24 12:05:07;;;;;;;;;;;;;;;;;;5049375;28;20029;-81
2023/10/24 12:07:52;;;;;;;;;;;;;;;;;;5057786;28;20291;-81
2023/10/24 12:10:37;;;;;;;9.88;3.00;;;;;;;;;;5058647;28;20350;-81
2023/10/24 12:13:23;;;;;;;12.50;3.97;;;;;;;;;;5051509;28;20032;-82
2023/10/24 12:16:08;;;;;;;10.38;4.07;;;;;;;;;;5051304;28;20032;-81
2023/10/24 12:18:53;;;;;;;13.50;3.80;;;;;;;;;;5051728;28;20387;-80
2023/10/24 12:21:39;;;;;;;10.07;3.63;;;;;;;;;;5058853;28;20078;-83
2023/10/24 12:24:24;;;;;;;10.88;4.18;;;;;;;;;;5038138;28;20040;-82
2023/10/24 12:27:09;;;;;;;14.88;4.47;;;;;;;;;;5051598;28;20032;-81
2023/10/24 12:29:55;;;;;;;18.17;5.40;;;;;;;;;;5057997;28;20388;-80
2023/10/24 12:32:43;;;;;;;12.32;3.60;;;;;;;;;;5050717;28;20506;-82
2023/10/24 12:35:29;;;;;;;8.88;3.03;;;;;;;;;;5041767;28;20059;-86
2023/10/24 12:38:15;;;;;;;10.25;3.70;;;;;;;;;;5060894;28;20360;-81
2023/10/24 12:41:00;;;;;;;9.30;3.88;;;;;;;;;;5060327;28;20039;-84
2023/10/24 12:43:45;;;;;;;12.05;3.67;;;;;;;;;;5058261;28;20048;-83
2023/10/24 12:46:31;;;;;;;7.35;3.58;;;;;;;;;;5051425;28;20036;-81
2023/10/24 12:49:16;;;;;;;12.90;3.60;;;;;;;;;;5057190;28;20368;-83
2023/10/24 12:52:02;;;;;;;12.45;3.63;;;;;;;;;;5040506;28;20395;-81
2023/10/24 12:54:49;;;;;;;11.85;3.85;;;;;;;;;;5058041;28;20053;-82
2023/10/24 12:57:34;;;;;;;15.60;4.45;;;;;;;;;;5050584;28;20360;-81
2023/10/24 13:00:19;;;;;;;13.48;3.67;;;;;;;;;;5063664;28;20047;-83
2023/10/24 13:03:04;;;;;;;12.38;3.60;;;;;;;;;;5049380;28;20427;-82
2023/10/24 13:05:50;;;;;;;13.40;4.30;;;;;;;;;;5056285;28;20048;-81
2023/10/24 13:08:36;;;;;;;13.60;4.00;;;;;;;;;;5049923;28;20047;-82
2023/10/24 13:11:21;;;;;;;10.90;3.95;;;;;;;;;;5049887;28;20471;-83
2023/10/24 13:14:07;;;;;;;15.88;4.90;;;;;;;;;;5057231;28;20503;-82
2023/10/24 13:16:56;;;;;;;13.55;4.40;;;;;;;;;;5041511;28;20028;-81
2023/10/24 13:19:42;;;;;;;13.93;4.50;;;;;;;;;;5055787;28;20035;-82
2023/10/24 13:22:26;;;;;;;20.73;4.53;;;;;;;;;;5050463;28;20073;-81
2023/10/24 13:25:11;;;;;;;13.77;5.10;;;;;;;;;;5050049;28;20033;-81
2023/10/24 13:27:56;;;;;;;16.00;5.63;;;;;;;;;;5050569;28;20055;-83
2023/10/24 13:30:44;;;;;;;13.60;4.35;;;;;;;;;;5049629;28;20419;-81
2023/10/24 13:33:29;;;;;;;16.88;5.22;;;;;;;;;;5049482;28;20052;-81
2023/10/24 13:36:14;;;;;;;13.55;4.07;;;;;;;;;;5041664;28;20518;-81
2023/10/24 13:39:00;;;;;;;16.60;4.82;;;;;;;;;;5058403;28;20051;-80
2023/10/24 13:41:46;;;;;;;14.52;4.57;;;;;;;;;;5052960;28;20039;-82
2023/10/24 13:44:31;;;;;;;16.02;4.90;;;;;;;;;;5057365;28;20040;-82
2023/10/24 13:47:15;;;;;;;;;;;;;;;;;;5041735;28;20036;-81
2023/10/24 13:50:00;;;;;;;13.40;4.57;;;;;;;;;;5050601;28;19919;-83
2023/10/24 13:52:47;;;;;;;11.88;3.97;;;;;;;;;;5057005;28;20051;-81
2023/10/24 13:55:36;;;;;;;17.30;4.95;;;;;;;;;;5057032;28;20387;-83
2023/10/24 13:58:21;;;;;;;11.57;4.95;;;;;;;;;;5039909;28;20385;-81
2023/10/24 14:01:06;;;;;;;17.80;4.45;;;;;;;;;;5040400;28;20383;-81
2023/10/24 14:03:51;;;;;;;12.57;4.32;;;;;;;;;;5049668;28;20387;-83
2023/10/24 14:06:36;;;;;;;12.85;4.82;;;;;;;;;;5050269;28;20024;-82
2023/10/24 14:09:21;;;;;;;15.70;5.00;;;;;;;;;;5056725;28;20407;-85
2023/10/24 14:12:07;;;;;;;16.00;4.65;;;;;;;;;;5050323;28;20048;-83
2023/10/24 14:14:52;;;;;;;11.57;4.55;;;;;;;;;;5033840;28;20047;-82
2023/10/24 14:17:38;;;;;;;16.40;4.55;;;;;;;;;;5056169;28;20028;-81
2023/10/24 14:20:24;;;;;;;17.60;4.88;;;;;;;;;;5039490;28;20047;-83
2023/10/24 14:23:13;;;;;;;14.38;5.63;;;;;;;;;;5056415;28;20048;-84
2023/10/24 14:26:00;;;;;;;15.13;4.43;;;;;;;;;;5056622;28;20391;-83
2023/10/24 14:28:45;;;;;;;16.90;4.72;;;;;;;;;;5049022;28;20044;-82
2023/10/24 14:31:30;;;;;;;13.38;5.07;;;;;;;;;;5056073;28;20479;-81
2023/10/24 14:34:16;;;;;;;14.55;4.05;;;;;;;;;;5060720;28;20402;-83
2023/10/24 14:37:03;;;;;;;15.52;4.20;;;;;;;;;;5054593;28;20063;-83
2023/10/24 14:39:49;;;;;;;11.52;4.07;;;;;;;;;;5042300;28;20055;-82
2023/10/24 14:42:34;;;;;;;17.17;4.25;;;;;;;;;;5051220;28;20036;-82
2023/10/24 14:45:20;;;;;;;14.07;4.78;;;;;;;;;;5056140;28;20055;-80
2023/10/24 14:48:06;;;;;;;20.80;4.70;;;;;;;;;;5055455;28;20047;-81
2023/10/24 14:50:51;;;;;;;21.27;5.53;;;;;;;;;;5055971;28;20051;-82
2023/10/24 14:53:36;;;;;;;22.67;5.15;;;;;;;;;;5054846;28;20043;-81
2023/10/24 14:56:21;;;;;;;17.15;5.00;;;;;;;;;;5038876;28;21814;-83
2023/10/24 14:59:06;;;;;;;15.57;4.55;;;;;;;;;;5036621;28;20146;-82
2023/10/24 15:01:51;;;;;;;14.20;4.43;;;;;;;;;;5057429;28;20020;-81
2023/10/24 15:04:36;;;;;;;13.45;4.38;;;;;;;;;;5036276;28;20040;-82
2023/10/24 15:07:22;;;;;;;49.60;15.38;;;;;;;;;;5056719;28;20395;-82
2023/10/24 15:10:08;;;;;;;17.55;5.75;;;;;;;;;;5055051;28;20471;-81
2023/10/24 15:12:53;;;;;;;19.65;5.80;;;;;;;;;;5055110;28;20496;-81
2023/10/24 15:15:40;;;;;;;16.08;5.43;;;;;;;;;;5049616;28;20043;-84
2023/10/24 15:18:25;;;;;;;16.00;4.60;;;;;;;;;;5025887;28;20060;-84
2023/10/24 15:21:09;;;;;;;;;;;;;;;;;;5048027;28;20044;-80
2023/10/24 15:23:54;;;;;;;13.45;4.53;;;;;;;;;;5039892;28;20339;-81
2023/10/24 15:26:39;;;;;;;16.13;5.10;;;;;;;;;;5053963;28;20057;-80
2023/10/24 15:29:24;;;;;;;16.08;3.97;;;;;;;;;;5037436;28;20399;-84
2023/10/24 15:32:11;;;;;;;16.40;4.30;;;;;;;;;;5049788;28;20039;-83
2023/10/24 15:34:55;;;;;;;14.38;4.35;;;;;;;;;;5057269;28;20036;-81
2023/10/24 15:37:41;;;;;;;20.55;4.70;;;;;;;;;;5052821;28;20044;-82
2023/10/24 15:40:27;;;;;;;13.27;4.30;;;;;;;;;;5054360;28;20391;-81
2023/10/24 15:43:12;;;;;;;15.45;4.85;;;;;;;;;;5055493;28;20043;-81
2023/10/24 15:46:18;;;;;;;15.55;3.92;;;;;;;;;;5054361;28;20047;-81
2023/10/24 15:49:03;;;;;;;16.67;4.82;;;;;;;;;;5054645;28;20041;-83
2023/10/24 15:51:48;;;;;;;18.08;6.47;;;;;;;;;;5047799;28;20029;-80
2023/10/24 15:54:36;;;;;;;16.35;6.80;;;;;;;;;;5047398;28;20395;-82
2023/10/24 15:57:21;;;;;;;21.92;6.75;;;;;;;;;;5066063;28;20488;-82
2023/10/24 16:00:07;;;;;;;19.15;6.50;;;;;;;;;;5032437;28;20048;-81
2023/10/24 16:02:52;;;;;;;28.20;9.38;;;;;;;;;;5019421;28;20050;-86
2023/10/24 16:05:39;;;;;;;39.90;15.80;;;;;;;;;;5034260;28;20045;-82
2023/10/24 16:08:24;;;;;;;22.95;6.32;;;;;;;;;;5027575;28;20523;-82
2023/10/24 16:11:10;;;;;;;20.52;6.78;;;;;;;;;;5027844;28;20601;-82
2023/10/24 16:13:56;;;;;;;21.92;8.20;;;;;;;;;;5027629;28;20392;-85
2023/10/24 16:16:42;;;;;;;30.77;8.45;;;;;;;;;;5029576;28;20475;-83
2023/10/24 16:19:27;;;;;;;28.42;7.07;;;;;;;;;;5001366;28;20408;-84
2023/10/24 16:22:13;;;;;;;27.83;7.63;;;;;;;;;;5032488;28;20048;-82
2023/10/24 16:24:58;;;;;;;18.45;6.20;;;;;;;;;;5021498;28;20748;-81
2023/10/24 16:27:43;;;;;;;21.05;5.10;;;;;;;;;;5014836;28;20409;-83
2023/10/24 16:30:28;;;;;;;20.10;7.00;;;;;;;;;;5039856;28;20400;-82
2023/10/24 16:33:14;;;;;;;17.77;5.40;;;;;;;;;;5028587;28;20052;-81
2023/10/24 16:36:01;;;;;;;23.25;10.70;;;;;;;;;;5004704;28;20032;-82
2023/10/24 16:38:46;;;;;;;22.63;7.43;;;;;;;;;;5019879;28;20032;-84
2023/10/24 16:41:33;;;;;;;24.83;6.53;;;;;;;;;;5012321;28;20475;-81
2023/10/24 16:44:18;;;;;;;12.77;4.13;;;;;;;;;;4998687;28;20064;-81
2023/10/24 16:47:03;;;;;;;26.50;7.18;;;;;;;;;;5012894;28;20044;-80
2023/10/24 16:49:48;;;;;;;22.42;4.38;;;;;;;;;;5010200;28;20042;-84
2023/10/24 16:52:33;;;;;;;17.80;3.50;;;;;;;;;;5004192;28;20408;-82
2023/10/24 16:55:19;;;;;;;24.33;6.68;;;;;;;;;;5034185;28;20043;-83
2023/10/24 16:58:04;;;;;;;16.85;5.82;;;;;;;;;;5012508;28;20392;-84